sensor_id;sensor_type;location;lat;lon;timestamp;P1;durP1;ratioP1;P2;durP2;ratioP2
28009;SDS011;15334;49.494;8.410;2022-12-18T00:02:06;48.97;;;16.05;;
28009;SDS011;15334;49.494;8.410;2022-12-18T00:04:44;47.53;;;18.30;;
28009;SDS011;15334;49.494;8.410;2022-12-18T00:07:20;55.33;;;19.92;;
28009;SDS011;15334;49.494;8.410;2022-12-18T00:09:49;57.63;;;16.95;;
28009;SDS011;15334;49.494;8.410;2022-12-18T00:12:28;58.65;;;18.80;;
28009;SDS011;15334;49.494;8.410;2022-12-18T00:15:02;49.20;;;18.40;;
28009;SDS011;15334;49.494;8.410;2022-12-18T00:17:30;52.47;;;18.42;;
28009;SDS011;15334;49.494;8.410;2022-12-18T00:19:58;57.03;;;17.40;;
28009;SDS011;15334;49.494;8.410;2022-12-18T00:22:26;61.15;;;18.27;;
28009;SDS011;15334;49.494;8.410;2022-12-18T00:24:56;57.50;;;17.08;;
28009;SDS011;15334;49.494;8.410;2022-12-18T00:27:33;52.30;;;19.55;;
28009;SDS011;15334;49.494;8.410;2022-12-18T00:30:16;46.75;;;16.60;;
28009;SDS011;15334;49.494;8.410;2022-12-18T00:32:58;60.15;;;18.42;;
28009;SDS011;15334;49.494;8.410;2022-12-18T00:35:33;51.88;;;17.05;;
28009;SDS011;15334;49.494;8.410;2022-12-18T00:38:09;47.42;;;17.40;;
28009;SDS011;15334;49.494;8.410;2022-12-18T00:43:38;50.35;;;16.80;;
28009;SDS011;15334;49.494;8.410;2022-12-18T00:46:06;48.55;;;16.60;;
28009;SDS011;15334;49.494;8.410;2022-12-18T00:48:35;50.95;;;17.27;;
28009;SDS011;15334;49.494;8.410;2022-12-18T00:51:19;60.28;;;18.33;;
28009;SDS011;15334;49.494;8.410;2022-12-18T00:53:47;56.58;;;18.20;;
28009;SDS011;15334;49.494;8.410;2022-12-18T00:56:21;58.67;;;18.10;;
28009;SDS011;15334;49.494;8.410;2022-12-18T00:59:08;52.92;;;18.67;;
28009;SDS011;15334;49.494;8.410;2022-12-18T01:01:36;45.38;;;14.80;;
28009;SDS011;15334;49.494;8.410;2022-12-18T01:04:04;45.58;;;18.23;;
28009;SDS011;15334;49.494;8.410;2022-12-18T01:06:32;47.40;;;17.55;;
28009;SDS011;15334;49.494;8.410;2022-12-18T01:09:00;63.72;;;19.90;;
28009;SDS011;15334;49.494;8.410;2022-12-18T01:11:32;49.22;;;17.58;;
28009;SDS011;15334;49.494;8.410;2022-12-18T01:14:01;45.05;;;14.75;;
28009;SDS011;15334;49.494;8.410;2022-12-18T01:16:29;42.05;;;15.70;;
28009;SDS011;15334;49.494;8.410;2022-12-18T01:18:58;60.33;;;17.42;;
28009;SDS011;15334;49.494;8.410;2022-12-18T01:21:40;46.55;;;15.90;;
28009;SDS011;15334;49.494;8.410;2022-12-18T01:24:22;49.42;;;15.95;;
28009;SDS011;15334;49.494;8.410;2022-12-18T01:26:57;43.70;;;16.20;;
28009;SDS011;15334;49.494;8.410;2022-12-18T01:29:28;53.10;;;17.05;;
28009;SDS011;15334;49.494;8.410;2022-12-18T01:31:56;50.70;;;15.52;;
28009;SDS011;15334;49.494;8.410;2022-12-18T01:34:24;42.88;;;16.58;;
28009;SDS011;15334;49.494;8.410;2022-12-18T01:36:52;40.60;;;14.88;;
28009;SDS011;15334;49.494;8.410;2022-12-18T01:39:20;53.08;;;16.65;;
28009;SDS011;15334;49.494;8.410;2022-12-18T01:41:48;46.40;;;16.27;;
28009;SDS011;15334;49.494;8.410;2022-12-18T01:47:34;44.85;;;15.35;;
28009;SDS011;15334;49.494;8.410;2022-12-18T01:50:13;48.95;;;17.48;;
28009;SDS011;15334;49.494;8.410;2022-12-18T01:52:45;40.55;;;14.00;;
28009;SDS011;15334;49.494;8.410;2022-12-18T01:55:22;47.90;;;18.13;;
28009;SDS011;15334;49.494;8.410;2022-12-18T01:57:54;43.47;;;16.73;;
28009;SDS011;15334;49.494;8.410;2022-12-18T02:02:58;52.13;;;16.48;;
28009;SDS011;15334;49.494;8.410;2022-12-18T02:05:46;37.88;;;16.88;;
28009;SDS011;15334;49.494;8.410;2022-12-18T02:08:24;54.13;;;16.25;;
28009;SDS011;15334;49.494;8.410;2022-12-18T02:11:01;45.90;;;16.63;;
28009;SDS011;15334;49.494;8.410;2022-12-18T02:13:36;46.13;;;19.08;;
28009;SDS011;15334;49.494;8.410;2022-12-18T02:16:12;50.85;;;17.60;;
28009;SDS011;15334;49.494;8.410;2022-12-18T02:18:50;57.30;;;17.08;;
28009;SDS011;15334;49.494;8.410;2022-12-18T02:21:26;49.47;;;14.25;;
28009;SDS011;15334;49.494;8.410;2022-12-18T02:24:04;54.40;;;18.42;;
28009;SDS011;15334;49.494;8.410;2022-12-18T02:26:45;49.75;;;18.10;;
28009;SDS011;15334;49.494;8.410;2022-12-18T02:29:16;42.47;;;16.05;;
28009;SDS011;15334;49.494;8.410;2022-12-18T02:34:36;40.97;;;14.75;;
28009;SDS011;15334;49.494;8.410;2022-12-18T02:37:15;47.22;;;15.18;;
28009;SDS011;15334;49.494;8.410;2022-12-18T02:39:56;48.70;;;16.58;;
28009;SDS011;15334;49.494;8.410;2022-12-18T02:42:36;43.50;;;18.35;;
28009;SDS011;15334;49.494;8.410;2022-12-18T02:45:07;55.70;;;16.48;;
28009;SDS011;15334;49.494;8.410;2022-12-18T02:47:39;38.15;;;11.48;;
28009;SDS011;15334;49.494;8.410;2022-12-18T02:50:22;50.95;;;15.10;;
28009;SDS011;15334;49.494;8.410;2022-12-18T02:52:56;49.47;;;18.17;;
28009;SDS011;15334;49.494;8.410;2022-12-18T02:55:33;56.65;;;16.80;;
28009;SDS011;15334;49.494;8.410;2022-12-18T02:58:15;42.95;;;15.05;;
28009;SDS011;15334;49.494;8.410;2022-12-18T03:00:50;44.88;;;16.58;;
28009;SDS011;15334;49.494;8.410;2022-12-18T03:03:29;42.67;;;16.08;;
28009;SDS011;15334;49.494;8.410;2022-12-18T03:06:04;62.00;;;17.65;;
28009;SDS011;15334;49.494;8.410;2022-12-18T03:08:36;51.22;;;17.88;;
28009;SDS011;15334;49.494;8.410;2022-12-18T03:11:08;40.97;;;13.47;;
28009;SDS011;15334;49.494;8.410;2022-12-18T03:13:40;47.47;;;17.17;;
28009;SDS011;15334;49.494;8.410;2022-12-18T03:16:15;71.68;;;20.50;;
28009;SDS011;15334;49.494;8.410;2022-12-18T03:18:49;42.83;;;16.27;;
28009;SDS011;15334;49.494;8.410;2022-12-18T03:21:23;60.35;;;17.85;;
28009;SDS011;15334;49.494;8.410;2022-12-18T03:23:55;51.78;;;15.05;;
28009;SDS011;15334;49.494;8.410;2022-12-18T03:26:24;49.15;;;16.10;;
28009;SDS011;15334;49.494;8.410;2022-12-18T03:28:57;51.83;;;15.57;;
28009;SDS011;15334;49.494;8.410;2022-12-18T03:31:30;62.55;;;16.73;;
28009;SDS011;15334;49.494;8.410;2022-12-18T03:34:15;54.50;;;18.17;;
28009;SDS011;15334;49.494;8.410;2022-12-18T03:36:46;58.58;;;16.60;;
28009;SDS011;15334;49.494;8.410;2022-12-18T03:39:14;55.30;;;17.98;;
28009;SDS011;15334;49.494;8.410;2022-12-18T03:41:43;58.20;;;17.33;;
28009;SDS011;15334;49.494;8.410;2022-12-18T03:44:20;56.10;;;17.55;;
28009;SDS011;15334;49.494;8.410;2022-12-18T03:46:54;52.28;;;17.65;;
28009;SDS011;15334;49.494;8.410;2022-12-18T03:49:32;46.13;;;18.00;;
28009;SDS011;15334;49.494;8.410;2022-12-18T03:52:05;51.90;;;17.80;;
28009;SDS011;15334;49.494;8.410;2022-12-18T03:54:37;56.38;;;16.85;;
28009;SDS011;15334;49.494;8.410;2022-12-18T03:57:11;49.17;;;18.23;;
28009;SDS011;15334;49.494;8.410;2022-12-18T03:59:44;55.70;;;17.58;;
28009;SDS011;15334;49.494;8.410;2022-12-18T04:02:14;55.28;;;17.40;;
28009;SDS011;15334;49.494;8.410;2022-12-18T04:04:46;51.00;;;16.58;;
28009;SDS011;15334;49.494;8.410;2022-12-18T04:07:17;54.63;;;18.27;;
28009;SDS011;15334;49.494;8.410;2022-12-18T04:09:47;51.17;;;16.95;;
28009;SDS011;15334;49.494;8.410;2022-12-18T04:12:17;58.15;;;18.35;;
28009;SDS011;15334;49.494;8.410;2022-12-18T04:14:50;50.22;;;17.05;;
28009;SDS011;15334;49.494;8.410;2022-12-18T04:17:18;62.03;;;16.77;;
28009;SDS011;15334;49.494;8.410;2022-12-18T04:19:46;67.80;;;19.95;;
28009;SDS011;15334;49.494;8.410;2022-12-18T04:22:14;59.97;;;19.25;;
28009;SDS011;15334;49.494;8.410;2022-12-18T04:24:42;55.95;;;19.20;;
28009;SDS011;15334;49.494;8.410;2022-12-18T04:27:10;56.45;;;16.83;;
28009;SDS011;15334;49.494;8.410;2022-12-18T04:29:40;51.40;;;18.63;;
28009;SDS011;15334;49.494;8.410;2022-12-18T04:32:09;61.70;;;19.55;;
28009;SDS011;15334;49.494;8.410;2022-12-18T04:34:37;67.95;;;19.48;;
28009;SDS011;15334;49.494;8.410;2022-12-18T04:37:05;69.38;;;19.52;;
28009;SDS011;15334;49.494;8.410;2022-12-18T04:39:34;66.68;;;20.67;;
28009;SDS011;15334;49.494;8.410;2022-12-18T04:42:02;52.40;;;16.77;;
28009;SDS011;15334;49.494;8.410;2022-12-18T04:44:33;54.53;;;19.13;;
28009;SDS011;15334;49.494;8.410;2022-12-18T04:47:03;44.60;;;19.50;;
28009;SDS011;15334;49.494;8.410;2022-12-18T04:49:33;57.75;;;19.92;;
28009;SDS011;15334;49.494;8.410;2022-12-18T04:52:01;59.63;;;17.55;;
28009;SDS011;15334;49.494;8.410;2022-12-18T04:54:29;56.33;;;21.35;;
28009;SDS011;15334;49.494;8.410;2022-12-18T04:56:57;75.65;;;21.48;;
28009;SDS011;15334;49.494;8.410;2022-12-18T04:59:25;56.60;;;18.35;;
28009;SDS011;15334;49.494;8.410;2022-12-18T05:01:53;48.70;;;16.92;;
28009;SDS011;15334;49.494;8.410;2022-12-18T05:04:29;67.93;;;18.58;;
28009;SDS011;15334;49.494;8.410;2022-12-18T05:07:01;58.80;;;16.92;;
28009;SDS011;15334;49.494;8.410;2022-12-18T05:09:34;51.78;;;18.92;;
28009;SDS011;15334;49.494;8.410;2022-12-18T05:12:02;71.78;;;18.25;;
28009;SDS011;15334;49.494;8.410;2022-12-18T05:14:32;58.90;;;19.63;;
28009;SDS011;15334;49.494;8.410;2022-12-18T05:17:00;66.68;;;18.13;;
28009;SDS011;15334;49.494;8.410;2022-12-18T05:19:28;63.17;;;20.85;;
28009;SDS011;15334;49.494;8.410;2022-12-18T05:21:56;54.58;;;17.95;;
28009;SDS011;15334;49.494;8.410;2022-12-18T05:24:26;46.45;;;17.05;;
28009;SDS011;15334;49.494;8.410;2022-12-18T05:26:54;68.43;;;18.90;;
28009;SDS011;15334;49.494;8.410;2022-12-18T05:29:22;58.00;;;18.38;;
28009;SDS011;15334;49.494;8.410;2022-12-18T05:31:52;54.78;;;16.73;;
28009;SDS011;15334;49.494;8.410;2022-12-18T05:34:26;45.10;;;14.40;;
28009;SDS011;15334;49.494;8.410;2022-12-18T05:36:59;46.53;;;18.00;;
28009;SDS011;15334;49.494;8.410;2022-12-18T05:39:34;55.67;;;17.13;;
28009;SDS011;15334;49.494;8.410;2022-12-18T05:42:04;48.00;;;16.52;;
28009;SDS011;15334;49.494;8.410;2022-12-18T05:44:33;48.70;;;20.38;;
28009;SDS011;15334;49.494;8.410;2022-12-18T05:47:01;62.63;;;18.58;;
28009;SDS011;15334;49.494;8.410;2022-12-18T05:49:29;51.38;;;16.60;;
28009;SDS011;15334;49.494;8.410;2022-12-18T05:51:57;60.88;;;19.02;;
28009;SDS011;15334;49.494;8.410;2022-12-18T05:54:26;63.80;;;18.08;;
28009;SDS011;15334;49.494;8.410;2022-12-18T05:56:56;65.25;;;19.58;;
28009;SDS011;15334;49.494;8.410;2022-12-18T05:59:24;48.22;;;15.80;;
28009;SDS011;15334;49.494;8.410;2022-12-18T06:01:57;45.28;;;15.30;;
28009;SDS011;15334;49.494;8.410;2022-12-18T06:04:35;56.28;;;17.20;;
28009;SDS011;15334;49.494;8.410;2022-12-18T06:07:09;48.10;;;16.95;;
28009;SDS011;15334;49.494;8.410;2022-12-18T06:09:40;54.22;;;18.40;;
28009;SDS011;15334;49.494;8.410;2022-12-18T06:12:09;55.45;;;17.20;;
28009;SDS011;15334;49.494;8.410;2022-12-18T06:14:38;56.53;;;18.95;;
28009;SDS011;15334;49.494;8.410;2022-12-18T06:17:05;53.28;;;19.08;;
28009;SDS011;15334;49.494;8.410;2022-12-18T06:19:33;47.80;;;17.85;;
28009;SDS011;15334;49.494;8.410;2022-12-18T06:22:02;54.28;;;17.50;;
28009;SDS011;15334;49.494;8.410;2022-12-18T06:24:30;58.45;;;17.70;;
28009;SDS011;15334;49.494;8.410;2022-12-18T06:26:59;52.42;;;19.17;;
28009;SDS011;15334;49.494;8.410;2022-12-18T06:29:28;54.00;;;20.20;;
28009;SDS011;15334;49.494;8.410;2022-12-18T06:31:56;53.25;;;18.65;;
28009;SDS011;15334;49.494;8.410;2022-12-18T06:34:24;67.35;;;20.10;;
28009;SDS011;15334;49.494;8.410;2022-12-18T06:36:52;58.67;;;19.55;;
28009;SDS011;15334;49.494;8.410;2022-12-18T06:39:21;62.85;;;18.60;;
28009;SDS011;15334;49.494;8.410;2022-12-18T06:41:49;54.03;;;18.77;;
28009;SDS011;15334;49.494;8.410;2022-12-18T06:44:18;52.05;;;18.33;;
28009;SDS011;15334;49.494;8.410;2022-12-18T06:46:48;59.08;;;19.52;;
28009;SDS011;15334;49.494;8.410;2022-12-18T06:49:16;57.58;;;18.08;;
28009;SDS011;15334;49.494;8.410;2022-12-18T06:51:44;60.78;;;18.73;;
28009;SDS011;15334;49.494;8.410;2022-12-18T06:54:12;62.85;;;20.92;;
28009;SDS011;15334;49.494;8.410;2022-12-18T06:56:40;64.53;;;17.90;;
28009;SDS011;15334;49.494;8.410;2022-12-18T06:59:12;59.10;;;18.23;;
28009;SDS011;15334;49.494;8.410;2022-12-18T07:01:40;66.25;;;19.42;;
28009;SDS011;15334;49.494;8.410;2022-12-18T07:04:10;58.95;;;18.35;;
28009;SDS011;15334;49.494;8.410;2022-12-18T07:06:38;49.08;;;17.23;;
28009;SDS011;15334;49.494;8.410;2022-12-18T07:09:06;61.25;;;15.80;;
28009;SDS011;15334;49.494;8.410;2022-12-18T07:11:35;53.00;;;19.30;;
28009;SDS011;15334;49.494;8.410;2022-12-18T07:14:03;61.40;;;19.23;;
28009;SDS011;15334;49.494;8.410;2022-12-18T07:16:34;62.90;;;19.05;;
28009;SDS011;15334;49.494;8.410;2022-12-18T07:19:02;54.85;;;16.15;;
28009;SDS011;15334;49.494;8.410;2022-12-18T07:21:34;62.35;;;19.00;;
28009;SDS011;15334;49.494;8.410;2022-12-18T07:24:06;68.15;;;22.17;;
28009;SDS011;15334;49.494;8.410;2022-12-18T07:26:34;63.03;;;17.80;;
28009;SDS011;15334;49.494;8.410;2022-12-18T07:29:02;70.50;;;21.02;;
28009;SDS011;15334;49.494;8.410;2022-12-18T07:31:30;61.40;;;18.58;;
28009;SDS011;15334;49.494;8.410;2022-12-18T07:34:01;55.55;;;17.95;;
28009;SDS011;15334;49.494;8.410;2022-12-18T07:36:30;46.38;;;17.70;;
28009;SDS011;15334;49.494;8.410;2022-12-18T07:39:01;56.25;;;19.30;;
28009;SDS011;15334;49.494;8.410;2022-12-18T07:41:29;51.22;;;18.92;;
28009;SDS011;15334;49.494;8.410;2022-12-18T07:43:56;56.80;;;18.95;;
28009;SDS011;15334;49.494;8.410;2022-12-18T07:46:24;59.47;;;20.30;;
28009;SDS011;15334;49.494;8.410;2022-12-18T07:48:52;60.55;;;19.35;;
28009;SDS011;15334;49.494;8.410;2022-12-18T07:51:20;56.13;;;18.48;;
28009;SDS011;15334;49.494;8.410;2022-12-18T07:53:50;48.00;;;15.43;;
28009;SDS011;15334;49.494;8.410;2022-12-18T07:56:19;50.75;;;16.30;;
28009;SDS011;15334;49.494;8.410;2022-12-18T07:58:56;49.35;;;17.15;;
28009;SDS011;15334;49.494;8.410;2022-12-18T08:01:25;51.08;;;17.25;;
28009;SDS011;15334;49.494;8.410;2022-12-18T08:03:54;48.17;;;15.30;;
28009;SDS011;15334;49.494;8.410;2022-12-18T08:06:22;50.65;;;18.83;;
28009;SDS011;15334;49.494;8.410;2022-12-18T08:08:51;68.03;;;19.63;;
28009;SDS011;15334;49.494;8.410;2022-12-18T08:11:21;65.78;;;20.50;;
28009;SDS011;15334;49.494;8.410;2022-12-18T08:13:50;51.05;;;18.63;;
28009;SDS011;15334;49.494;8.410;2022-12-18T08:16:18;49.63;;;15.82;;
28009;SDS011;15334;49.494;8.410;2022-12-18T08:18:51;55.50;;;17.63;;
28009;SDS011;15334;49.494;8.410;2022-12-18T08:21:20;54.92;;;19.60;;
28009;SDS011;15334;49.494;8.410;2022-12-18T08:23:50;62.55;;;19.42;;
28009;SDS011;15334;49.494;8.410;2022-12-18T08:26:21;47.10;;;17.70;;
28009;SDS011;15334;49.494;8.410;2022-12-18T08:28:53;57.03;;;17.55;;
28009;SDS011;15334;49.494;8.410;2022-12-18T08:31:25;61.40;;;19.88;;
28009;SDS011;15334;49.494;8.410;2022-12-18T08:33:54;55.40;;;18.55;;
28009;SDS011;15334;49.494;8.410;2022-12-18T08:36:23;54.28;;;18.70;;
28009;SDS011;15334;49.494;8.410;2022-12-18T08:39:07;52.65;;;17.52;;
28009;SDS011;15334;49.494;8.410;2022-12-18T08:41:40;64.53;;;17.42;;
28009;SDS011;15334;49.494;8.410;2022-12-18T08:44:12;47.08;;;18.25;;
28009;SDS011;15334;49.494;8.410;2022-12-18T08:46:58;51.67;;;16.73;;
28009;SDS011;15334;49.494;8.410;2022-12-18T08:49:26;58.38;;;17.33;;
28009;SDS011;15334;49.494;8.410;2022-12-18T08:51:54;55.97;;;17.40;;
28009;SDS011;15334;49.494;8.410;2022-12-18T08:54:26;62.83;;;19.38;;
28009;SDS011;15334;49.494;8.410;2022-12-18T08:57:49;61.10;;;18.75;;
28009;SDS011;15334;49.494;8.410;2022-12-18T09:00:17;52.38;;;17.63;;
28009;SDS011;15334;49.494;8.410;2022-12-18T09:02:46;57.03;;;17.52;;
28009;SDS011;15334;49.494;8.410;2022-12-18T09:05:15;67.85;;;23.08;;
28009;SDS011;15334;49.494;8.410;2022-12-18T09:07:43;56.72;;;20.88;;
28009;SDS011;15334;49.494;8.410;2022-12-18T09:10:11;52.92;;;18.13;;
28009;SDS011;15334;49.494;8.410;2022-12-18T09:12:40;54.05;;;19.00;;
28009;SDS011;15334;49.494;8.410;2022-12-18T09:15:10;58.88;;;20.65;;
28009;SDS011;15334;49.494;8.410;2022-12-18T09:17:38;63.50;;;20.75;;
28009;SDS011;15334;49.494;8.410;2022-12-18T09:20:06;63.30;;;19.77;;
28009;SDS011;15334;49.494;8.410;2022-12-18T09:22:35;59.45;;;18.27;;
28009;SDS011;15334;49.494;8.410;2022-12-18T09:25:03;56.97;;;19.13;;
28009;SDS011;15334;49.494;8.410;2022-12-18T09:27:33;57.25;;;19.92;;
28009;SDS011;15334;49.494;8.410;2022-12-18T09:30:06;67.78;;;21.60;;
28009;SDS011;15334;49.494;8.410;2022-12-18T09:32:36;49.55;;;15.55;;
28009;SDS011;15334;49.494;8.410;2022-12-18T09:35:04;67.63;;;20.60;;
28009;SDS011;15334;49.494;8.410;2022-12-18T09:37:33;56.53;;;22.30;;
28009;SDS011;15334;49.494;8.410;2022-12-18T09:40:01;75.75;;;20.30;;
28009;SDS011;15334;49.494;8.410;2022-12-18T09:42:29;56.80;;;20.35;;
28009;SDS011;15334;49.494;8.410;2022-12-18T09:44:57;74.03;;;21.33;;
28009;SDS011;15334;49.494;8.410;2022-12-18T09:47:30;73.88;;;22.10;;
28009;SDS011;15334;49.494;8.410;2022-12-18T09:50:05;72.68;;;22.67;;
28009;SDS011;15334;49.494;8.410;2022-12-18T09:52:45;65.38;;;25.75;;
28009;SDS011;15334;49.494;8.410;2022-12-18T09:55:16;68.50;;;22.17;;
28009;SDS011;15334;49.494;8.410;2022-12-18T09:57:52;69.50;;;23.05;;
28009;SDS011;15334;49.494;8.410;2022-12-18T10:00:24;66.30;;;22.80;;
28009;SDS011;15334;49.494;8.410;2022-12-18T10:02:53;67.68;;;24.48;;
28009;SDS011;15334;49.494;8.410;2022-12-18T10:05:35;61.80;;;21.65;;
28009;SDS011;15334;49.494;8.410;2022-12-18T10:08:10;69.68;;;22.02;;
28009;SDS011;15334;49.494;8.410;2022-12-18T10:10:46;71.90;;;21.63;;
28009;SDS011;15334;49.494;8.410;2022-12-18T10:13:33;57.17;;;19.73;;
28009;SDS011;15334;49.494;8.410;2022-12-18T10:16:09;71.18;;;23.52;;
28009;SDS011;15334;49.494;8.410;2022-12-18T10:18:56;74.43;;;24.30;;
28009;SDS011;15334;49.494;8.410;2022-12-18T10:21:32;63.65;;;20.58;;
28009;SDS011;15334;49.494;8.410;2022-12-18T10:24:09;56.17;;;20.45;;
28009;SDS011;15334;49.494;8.410;2022-12-18T10:26:48;70.05;;;22.70;;
28009;SDS011;15334;49.494;8.410;2022-12-18T10:29:16;67.88;;;23.83;;
28009;SDS011;15334;49.494;8.410;2022-12-18T10:31:44;65.57;;;20.25;;
28009;SDS011;15334;49.494;8.410;2022-12-18T10:34:14;71.47;;;23.65;;
28009;SDS011;15334;49.494;8.410;2022-12-18T10:36:46;63.58;;;20.48;;
28009;SDS011;15334;49.494;8.410;2022-12-18T10:39:16;70.78;;;24.38;;
28009;SDS011;15334;49.494;8.410;2022-12-18T10:41:48;67.05;;;22.42;;
28009;SDS011;15334;49.494;8.410;2022-12-18T10:44:19;62.15;;;19.98;;
28009;SDS011;15334;49.494;8.410;2022-12-18T10:46:48;56.15;;;20.33;;
28009;SDS011;15334;49.494;8.410;2022-12-18T10:49:22;67.60;;;20.10;;
28009;SDS011;15334;49.494;8.410;2022-12-18T10:52:04;62.80;;;24.02;;
28009;SDS011;15334;49.494;8.410;2022-12-18T10:54:35;72.80;;;26.17;;
28009;SDS011;15334;49.494;8.410;2022-12-18T10:57:17;55.92;;;21.42;;
28009;SDS011;15334;49.494;8.410;2022-12-18T11:02:54;62.35;;;20.90;;
28009;SDS011;15334;49.494;8.410;2022-12-18T11:05:26;63.58;;;22.38;;
28009;SDS011;15334;49.494;8.410;2022-12-18T11:08:01;55.90;;;19.90;;
28009;SDS011;15334;49.494;8.410;2022-12-18T11:10:30;69.90;;;21.77;;
28009;SDS011;15334;49.494;8.410;2022-12-18T11:13:10;58.67;;;22.98;;
28009;SDS011;15334;49.494;8.410;2022-12-18T11:15:43;55.13;;;22.50;;
28009;SDS011;15334;49.494;8.410;2022-12-18T11:18:19;49.08;;;16.70;;
28009;SDS011;15334;49.494;8.410;2022-12-18T11:20:51;64.30;;;22.05;;
28009;SDS011;15334;49.494;8.410;2022-12-18T11:23:25;58.88;;;22.88;;
28009;SDS011;15334;49.494;8.410;2022-12-18T11:25:55;63.38;;;22.65;;
28009;SDS011;15334;49.494;8.410;2022-12-18T11:28:29;57.85;;;21.10;;
28009;SDS011;15334;49.494;8.410;2022-12-18T11:31:23;57.25;;;20.33;;
28009;SDS011;15334;49.494;8.410;2022-12-18T11:34:00;60.15;;;20.98;;
28009;SDS011;15334;49.494;8.410;2022-12-18T11:36:51;55.15;;;19.30;;
28009;SDS011;15334;49.494;8.410;2022-12-18T11:39:24;64.20;;;23.25;;
28009;SDS011;15334;49.494;8.410;2022-12-18T11:42:00;56.88;;;22.65;;
28009;SDS011;15334;49.494;8.410;2022-12-18T11:44:41;57.08;;;21.90;;
28009;SDS011;15334;49.494;8.410;2022-12-18T11:47:24;60.63;;;24.10;;
28009;SDS011;15334;49.494;8.410;2022-12-18T11:49:59;65.53;;;24.63;;
28009;SDS011;15334;49.494;8.410;2022-12-18T11:52:31;62.78;;;21.45;;
28009;SDS011;15334;49.494;8.410;2022-12-18T11:55:10;55.28;;;21.50;;
28009;SDS011;15334;49.494;8.410;2022-12-18T11:57:45;67.70;;;22.38;;
28009;SDS011;15334;49.494;8.410;2022-12-18T12:00:19;61.42;;;21.67;;
28009;SDS011;15334;49.494;8.410;2022-12-18T12:03:04;59.35;;;20.23;;
28009;SDS011;15334;49.494;8.410;2022-12-18T12:05:48;51.33;;;20.42;;
28009;SDS011;15334;49.494;8.410;2022-12-18T12:08:26;55.78;;;22.38;;
28009;SDS011;15334;49.494;8.410;2022-12-18T12:11:12;54.60;;;22.75;;
28009;SDS011;15334;49.494;8.410;2022-12-18T12:13:54;52.83;;;21.05;;
28009;SDS011;15334;49.494;8.410;2022-12-18T12:16:37;62.10;;;21.55;;
28009;SDS011;15334;49.494;8.410;2022-12-18T12:19:16;64.63;;;22.40;;
28009;SDS011;15334;49.494;8.410;2022-12-18T12:21:57;60.67;;;22.35;;
28009;SDS011;15334;49.494;8.410;2022-12-18T12:24:33;64.45;;;21.58;;
28009;SDS011;15334;49.494;8.410;2022-12-18T12:27:10;59.35;;;21.98;;
28009;SDS011;15334;49.494;8.410;2022-12-18T12:29:50;55.33;;;22.85;;
28009;SDS011;15334;49.494;8.410;2022-12-18T12:32:30;57.15;;;22.55;;
28009;SDS011;15334;49.494;8.410;2022-12-18T12:35:12;59.67;;;22.15;;
28009;SDS011;15334;49.494;8.410;2022-12-18T12:37:52;47.45;;;16.55;;
28009;SDS011;15334;49.494;8.410;2022-12-18T12:40:26;48.72;;;19.33;;
28009;SDS011;15334;49.494;8.410;2022-12-18T12:43:23;59.35;;;22.13;;
28009;SDS011;15334;49.494;8.410;2022-12-18T12:45:55;60.25;;;22.58;;
28009;SDS011;15334;49.494;8.410;2022-12-18T12:48:31;59.67;;;21.95;;
28009;SDS011;15334;49.494;8.410;2022-12-18T12:51:09;60.75;;;23.15;;
28009;SDS011;15334;49.494;8.410;2022-12-18T12:53:41;69.75;;;26.67;;
28009;SDS011;15334;49.494;8.410;2022-12-18T12:56:13;72.20;;;26.15;;
28009;SDS011;15334;49.494;8.410;2022-12-18T12:58:58;68.00;;;25.95;;
28009;SDS011;15334;49.494;8.410;2022-12-18T13:01:35;69.00;;;24.83;;
28009;SDS011;15334;49.494;8.410;2022-12-18T13:04:12;77.70;;;30.27;;
28009;SDS011;15334;49.494;8.410;2022-12-18T13:06:50;80.15;;;27.73;;
28009;SDS011;15334;49.494;8.410;2022-12-18T13:09:24;67.38;;;26.60;;
28009;SDS011;15334;49.494;8.410;2022-12-18T13:12:01;74.55;;;28.70;;
28009;SDS011;15334;49.494;8.410;2022-12-18T13:14:49;80.70;;;29.70;;
28009;SDS011;15334;49.494;8.410;2022-12-18T13:17:29;82.88;;;30.80;;
28009;SDS011;15334;49.494;8.410;2022-12-18T13:20:08;53.57;;;19.93;;
28009;SDS011;15334;49.494;8.410;2022-12-18T13:22:40;74.90;;;26.65;;
28009;SDS011;15334;49.494;8.410;2022-12-18T13:25:33;70.32;;;25.90;;
28009;SDS011;15334;49.494;8.410;2022-12-18T13:36:35;75.40;;;26.73;;
28009;SDS011;15334;49.494;8.410;2022-12-18T13:39:10;69.10;;;25.20;;
28009;SDS011;15334;49.494;8.410;2022-12-18T13:48:22;72.70;;;26.98;;
28009;SDS011;15334;49.494;8.410;2022-12-18T13:50:53;66.35;;;25.80;;
28009;SDS011;15334;49.494;8.410;2022-12-18T13:53:27;65.88;;;24.67;;
28009;SDS011;15334;49.494;8.410;2022-12-18T13:55:57;55.30;;;19.05;;
28009;SDS011;15334;49.494;8.410;2022-12-18T13:58:29;65.60;;;23.92;;
28009;SDS011;15334;49.494;8.410;2022-12-18T14:00:59;74.88;;;24.70;;
28009;SDS011;15334;49.494;8.410;2022-12-18T14:03:32;51.53;;;17.30;;
28009;SDS011;15334;49.494;8.410;2022-12-18T14:06:03;67.45;;;25.60;;
28009;SDS011;15334;49.494;8.410;2022-12-18T14:08:36;67.88;;;28.45;;
28009;SDS011;15334;49.494;8.410;2022-12-18T14:11:07;51.60;;;20.38;;
28009;SDS011;15334;49.494;8.410;2022-12-18T14:13:44;74.93;;;25.00;;
28009;SDS011;15334;49.494;8.410;2022-12-18T14:16:16;72.57;;;27.33;;
28009;SDS011;15334;49.494;8.410;2022-12-18T14:18:47;71.20;;;26.98;;
28009;SDS011;15334;49.494;8.410;2022-12-18T14:21:24;66.15;;;27.23;;
28009;SDS011;15334;49.494;8.410;2022-12-18T14:24:04;74.88;;;27.55;;
28009;SDS011;15334;49.494;8.410;2022-12-18T14:26:47;68.32;;;27.48;;
28009;SDS011;15334;49.494;8.410;2022-12-18T14:29:21;64.20;;;26.10;;
28009;SDS011;15334;49.494;8.410;2022-12-18T14:32:05;78.13;;;28.95;;
28009;SDS011;15334;49.494;8.410;2022-12-18T14:34:45;78.00;;;27.23;;
28009;SDS011;15334;49.494;8.410;2022-12-18T14:39:54;65.88;;;27.33;;
28009;SDS011;15334;49.494;8.410;2022-12-18T14:42:24;76.88;;;27.00;;
28009;SDS011;15334;49.494;8.410;2022-12-18T14:48:08;66.13;;;24.17;;
28009;SDS011;15334;49.494;8.410;2022-12-18T14:50:55;73.65;;;26.63;;
28009;SDS011;15334;49.494;8.410;2022-12-18T14:53:32;66.78;;;25.70;;
28009;SDS011;15334;49.494;8.410;2022-12-18T14:56:02;60.28;;;25.48;;
28009;SDS011;15334;49.494;8.410;2022-12-18T14:58:44;62.20;;;25.77;;
28009;SDS011;15334;49.494;8.410;2022-12-18T15:01:24;68.22;;;25.60;;
28009;SDS011;15334;49.494;8.410;2022-12-18T15:03:55;69.88;;;25.92;;
28009;SDS011;15334;49.494;8.410;2022-12-18T15:06:35;68.45;;;28.55;;
28009;SDS011;15334;49.494;8.410;2022-12-18T15:09:20;73.30;;;26.33;;
28009;SDS011;15334;49.494;8.410;2022-12-18T15:11:49;61.78;;;25.23;;
28009;SDS011;15334;49.494;8.410;2022-12-18T15:14:31;71.55;;;25.20;;
28009;SDS011;15334;49.494;8.410;2022-12-18T15:17:03;68.90;;;26.23;;
28009;SDS011;15334;49.494;8.410;2022-12-18T15:19:37;69.25;;;26.08;;
28009;SDS011;15334;49.494;8.410;2022-12-18T15:24:56;71.75;;;25.88;;
28009;SDS011;15334;49.494;8.410;2022-12-18T15:27:26;84.28;;;27.23;;
28009;SDS011;15334;49.494;8.410;2022-12-18T15:30:00;78.10;;;30.00;;
28009;SDS011;15334;49.494;8.410;2022-12-18T15:32:32;69.80;;;26.58;;
28009;SDS011;15334;49.494;8.410;2022-12-18T15:35:07;75.38;;;27.23;;